LVI weather

Harry Mwanga Nkumbula International Airport
Livingstone, Southern Province, Zambia

Public forecast

Using degrees Celsius for public forecast. Weather courtesy of forecast.io.

Current aviation weather report (METAR) for Harry Mwanga Nkumbula International Airport

Report is more than 6 hours old.

Retrieved 2019/11/21 16:00 UTC (1 day ago):

FLHN 211600Z 24010KT 9999 FEW048 BKN080 23/18 Q1014

Closest aviation forecast (TAF) to Harry Mwanga Nkumbula International Airport

Forecast is more than 12 hours old.

Retrieved 2019/11/21 06:00 UTC (2 days ago):

TAF FLHN 210400Z 2106/2212 27005KT 9999 FEW025 BKN090 PROB30 TEMPO 21 09/2112 9000 -TSRA FEW035CB BKN090 BECMG 2115/2118 09005KT 9999 FEW0 40CB BKN090 PROB30 TEMPO 2200/2202 9000 -TSRA